sensor_id;sensor_type;location;lat;lon;timestamp;P1;durP1;ratioP1;P2;durP2;ratioP2
75021;SDS011;63583;49.976;20.182;2022-10-16T00:01:21;13.90;;;8.98;;
75021;SDS011;63583;49.976;20.182;2022-10-16T00:03:48;13.18;;;8.40;;
75021;SDS011;63583;49.976;20.182;2022-10-16T00:06:15;11.57;;;8.50;;
75021;SDS011;63583;49.976;20.182;2022-10-16T00:08:42;13.15;;;8.27;;
75021;SDS011;63583;49.976;20.182;2022-10-16T00:11:13;12.13;;;8.60;;
75021;SDS011;63583;49.976;20.182;2022-10-16T00:13:41;13.52;;;8.30;;
75021;SDS011;63583;49.976;20.182;2022-10-16T00:16:08;12.57;;;8.65;;
75021;SDS011;63583;49.976;20.182;2022-10-16T00:18:34;14.77;;;8.80;;
75021;SDS011;63583;49.976;20.182;2022-10-16T00:21:12;12.05;;;8.05;;
75021;SDS011;63583;49.976;20.182;2022-10-16T00:23:42;13.40;;;9.00;;
75021;SDS011;63583;49.976;20.182;2022-10-16T00:26:10;10.65;;;7.32;;
75021;SDS011;63583;49.976;20.182;2022-10-16T00:28:38;10.82;;;8.10;;
75021;SDS011;63583;49.976;20.182;2022-10-16T00:31:06;12.60;;;8.77;;
75021;SDS011;63583;49.976;20.182;2022-10-16T00:33:34;14.80;;;8.35;;
75021;SDS011;63583;49.976;20.182;2022-10-16T00:36:01;14.25;;;8.23;;
75021;SDS011;63583;49.976;20.182;2022-10-16T00:38:28;14.93;;;8.55;;
75021;SDS011;63583;49.976;20.182;2022-10-16T00:40:54;11.57;;;8.13;;
75021;SDS011;63583;49.976;20.182;2022-10-16T00:48:41;12.13;;;8.90;;
75021;SDS011;63583;49.976;20.182;2022-10-16T00:51:12;12.50;;;8.55;;
75021;SDS011;63583;49.976;20.182;2022-10-16T00:53:39;12.73;;;8.23;;
75021;SDS011;63583;49.976;20.182;2022-10-16T00:56:05;13.20;;;8.73;;
75021;SDS011;63583;49.976;20.182;2022-10-16T00:58:31;13.40;;;8.43;;
75021;SDS011;63583;49.976;20.182;2022-10-16T01:00:57;11.43;;;7.95;;
75021;SDS011;63583;49.976;20.182;2022-10-16T01:03:24;11.98;;;8.55;;
75021;SDS011;63583;49.976;20.182;2022-10-16T01:05:54;11.98;;;8.75;;
75021;SDS011;63583;49.976;20.182;2022-10-16T01:08:49;10.95;;;7.43;;
75021;SDS011;63583;49.976;20.182;2022-10-16T01:12:12;11.18;;;8.20;;
75021;SDS011;63583;49.976;20.182;2022-10-16T01:14:30;12.85;;;8.60;;
75021;SDS011;63583;49.976;20.182;2022-10-16T01:17:16;13.18;;;8.27;;
75021;SDS011;63583;49.976;20.182;2022-10-16T01:22:44;11.10;;;7.63;;
75021;SDS011;63583;49.976;20.182;2022-10-16T01:25:16;12.27;;;8.57;;
75021;SDS011;63583;49.976;20.182;2022-10-16T01:28:09;12.30;;;7.60;;
75021;SDS011;63583;49.976;20.182;2022-10-16T01:30:38;11.32;;;7.88;;
75021;SDS011;63583;49.976;20.182;2022-10-16T01:35:52;11.95;;;8.35;;
75021;SDS011;63583;49.976;20.182;2022-10-16T01:40:58;13.18;;;9.07;;
75021;SDS011;63583;49.976;20.182;2022-10-16T01:43:27;14.82;;;9.43;;
75021;SDS011;63583;49.976;20.182;2022-10-16T01:45:56;12.85;;;8.35;;
75021;SDS011;63583;49.976;20.182;2022-10-16T01:48:23;11.93;;;8.27;;
75021;SDS011;63583;49.976;20.182;2022-10-16T01:51:04;12.40;;;8.45;;
75021;SDS011;63583;49.976;20.182;2022-10-16T01:53:32;11.57;;;8.38;;
75021;SDS011;63583;49.976;20.182;2022-10-16T01:55:59;12.13;;;8.70;;
75021;SDS011;63583;49.976;20.182;2022-10-16T01:58:27;11.98;;;8.43;;
75021;SDS011;63583;49.976;20.182;2022-10-16T02:00:56;14.15;;;8.90;;
75021;SDS011;63583;49.976;20.182;2022-10-16T02:03:22;14.05;;;9.38;;
75021;SDS011;63583;49.976;20.182;2022-10-16T02:08:13;13.15;;;8.52;;
75021;SDS011;63583;49.976;20.182;2022-10-16T02:10:39;13.73;;;8.52;;
75021;SDS011;63583;49.976;20.182;2022-10-16T02:13:12;13.60;;;9.50;;
75021;SDS011;63583;49.976;20.182;2022-10-16T02:15:42;12.02;;;8.55;;
75021;SDS011;63583;49.976;20.182;2022-10-16T02:18:08;15.25;;;9.60;;
75021;SDS011;63583;49.976;20.182;2022-10-16T02:20:47;12.82;;;8.80;;
75021;SDS011;63583;49.976;20.182;2022-10-16T02:23:23;10.95;;;7.80;;
75021;SDS011;63583;49.976;20.182;2022-10-16T02:25:54;14.30;;;8.32;;
75021;SDS011;63583;49.976;20.182;2022-10-16T02:28:25;12.10;;;8.88;;
75021;SDS011;63583;49.976;20.182;2022-10-16T02:30:57;12.15;;;7.68;;
75021;SDS011;63583;49.976;20.182;2022-10-16T02:33:26;12.65;;;9.68;;
75021;SDS011;63583;49.976;20.182;2022-10-16T02:35:54;12.10;;;8.27;;
75021;SDS011;63583;49.976;20.182;2022-10-16T02:38:21;9.50;;;7.43;;
75021;SDS011;63583;49.976;20.182;2022-10-16T02:40:48;12.25;;;9.20;;
75021;SDS011;63583;49.976;20.182;2022-10-16T02:43:14;13.60;;;8.32;;
75021;SDS011;63583;49.976;20.182;2022-10-16T02:45:41;12.10;;;8.57;;
75021;SDS011;63583;49.976;20.182;2022-10-16T02:48:07;10.38;;;8.23;;
75021;SDS011;63583;49.976;20.182;2022-10-16T02:50:32;10.65;;;8.30;;
75021;SDS011;63583;49.976;20.182;2022-10-16T02:52:58;13.10;;;8.75;;
75021;SDS011;63583;49.976;20.182;2022-10-16T02:55:24;11.73;;;8.10;;
75021;SDS011;63583;49.976;20.182;2022-10-16T02:57:50;12.30;;;8.85;;
75021;SDS011;63583;49.976;20.182;2022-10-16T03:00:16;12.65;;;8.68;;
75021;SDS011;63583;49.976;20.182;2022-10-16T03:02:43;12.77;;;8.52;;
75021;SDS011;63583;49.976;20.182;2022-10-16T03:05:09;11.05;;;7.85;;
75021;SDS011;63583;49.976;20.182;2022-10-16T03:07:36;12.60;;;8.48;;
75021;SDS011;63583;49.976;20.182;2022-10-16T03:10:01;10.85;;;8.15;;
75021;SDS011;63583;49.976;20.182;2022-10-16T03:12:28;11.13;;;8.50;;
75021;SDS011;63583;49.976;20.182;2022-10-16T03:14:54;11.10;;;7.95;;
75021;SDS011;63583;49.976;20.182;2022-10-16T03:17:22;13.75;;;8.10;;
75021;SDS011;63583;49.976;20.182;2022-10-16T03:19:48;13.70;;;8.93;;
75021;SDS011;63583;49.976;20.182;2022-10-16T03:22:14;12.05;;;8.27;;
75021;SDS011;63583;49.976;20.182;2022-10-16T03:24:41;12.70;;;8.52;;
75021;SDS011;63583;49.976;20.182;2022-10-16T03:27:07;11.38;;;7.90;;
75021;SDS011;63583;49.976;20.182;2022-10-16T03:29:33;11.15;;;8.60;;
75021;SDS011;63583;49.976;20.182;2022-10-16T03:31:59;11.68;;;7.50;;
75021;SDS011;63583;49.976;20.182;2022-10-16T03:34:25;13.65;;;8.52;;
75021;SDS011;63583;49.976;20.182;2022-10-16T03:36:51;11.23;;;8.07;;
75021;SDS011;63583;49.976;20.182;2022-10-16T03:39:18;10.18;;;7.43;;
75021;SDS011;63583;49.976;20.182;2022-10-16T03:41:45;11.68;;;8.32;;
75021;SDS011;63583;49.976;20.182;2022-10-16T03:44:12;10.27;;;8.30;;
75021;SDS011;63583;49.976;20.182;2022-10-16T03:46:38;11.93;;;7.57;;
75021;SDS011;63583;49.976;20.182;2022-10-16T03:49:04;12.90;;;8.10;;
75021;SDS011;63583;49.976;20.182;2022-10-16T03:51:30;11.35;;;8.43;;
75021;SDS011;63583;49.976;20.182;2022-10-16T03:53:56;10.77;;;7.93;;
75021;SDS011;63583;49.976;20.182;2022-10-16T03:56:21;11.50;;;8.05;;
75021;SDS011;63583;49.976;20.182;2022-10-16T03:58:47;11.82;;;8.20;;
75021;SDS011;63583;49.976;20.182;2022-10-16T04:01:13;11.35;;;7.95;;
75021;SDS011;63583;49.976;20.182;2022-10-16T04:03:39;12.95;;;8.27;;
75021;SDS011;63583;49.976;20.182;2022-10-16T04:06:05;13.25;;;8.30;;
75021;SDS011;63583;49.976;20.182;2022-10-16T04:08:30;11.95;;;7.82;;
75021;SDS011;63583;49.976;20.182;2022-10-16T04:10:59;9.85;;;7.85;;
75021;SDS011;63583;49.976;20.182;2022-10-16T04:13:25;14.38;;;8.63;;
75021;SDS011;63583;49.976;20.182;2022-10-16T04:15:51;12.05;;;7.90;;
75021;SDS011;63583;49.976;20.182;2022-10-16T04:18:16;11.63;;;8.02;;
75021;SDS011;63583;49.976;20.182;2022-10-16T04:20:42;10.35;;;7.80;;
75021;SDS011;63583;49.976;20.182;2022-10-16T04:23:08;17.00;;;8.65;;
75021;SDS011;63583;49.976;20.182;2022-10-16T04:25:34;13.38;;;8.50;;
75021;SDS011;63583;49.976;20.182;2022-10-16T04:27:59;12.10;;;8.00;;
75021;SDS011;63583;49.976;20.182;2022-10-16T04:30:25;10.88;;;7.80;;
75021;SDS011;63583;49.976;20.182;2022-10-16T04:32:51;12.63;;;7.72;;
75021;SDS011;63583;49.976;20.182;2022-10-16T04:35:19;11.60;;;7.90;;
75021;SDS011;63583;49.976;20.182;2022-10-16T04:37:46;12.27;;;8.73;;
75021;SDS011;63583;49.976;20.182;2022-10-16T04:40:11;15.65;;;8.35;;
75021;SDS011;63583;49.976;20.182;2022-10-16T04:42:37;13.52;;;9.00;;
75021;SDS011;63583;49.976;20.182;2022-10-16T04:45:04;11.40;;;8.68;;
75021;SDS011;63583;49.976;20.182;2022-10-16T04:47:30;14.15;;;8.75;;
75021;SDS011;63583;49.976;20.182;2022-10-16T04:49:56;11.27;;;8.25;;
75021;SDS011;63583;49.976;20.182;2022-10-16T04:52:22;12.57;;;8.07;;
75021;SDS011;63583;49.976;20.182;2022-10-16T04:54:50;13.15;;;9.07;;
75021;SDS011;63583;49.976;20.182;2022-10-16T04:57:16;11.55;;;7.95;;
75021;SDS011;63583;49.976;20.182;2022-10-16T04:59:42;13.23;;;8.23;;
75021;SDS011;63583;49.976;20.182;2022-10-16T05:02:08;13.50;;;8.27;;
75021;SDS011;63583;49.976;20.182;2022-10-16T05:04:34;13.32;;;8.40;;
75021;SDS011;63583;49.976;20.182;2022-10-16T05:06:59;11.05;;;8.27;;
75021;SDS011;63583;49.976;20.182;2022-10-16T05:09:25;13.27;;;8.32;;
75021;SDS011;63583;49.976;20.182;2022-10-16T05:11:51;11.68;;;8.10;;
75021;SDS011;63583;49.976;20.182;2022-10-16T05:14:17;12.85;;;8.65;;
75021;SDS011;63583;49.976;20.182;2022-10-16T05:16:43;11.52;;;7.32;;
75021;SDS011;63583;49.976;20.182;2022-10-16T05:19:08;11.75;;;7.78;;
75021;SDS011;63583;49.976;20.182;2022-10-16T05:21:34;14.35;;;8.80;;
75021;SDS011;63583;49.976;20.182;2022-10-16T05:24:00;11.20;;;7.88;;
75021;SDS011;63583;49.976;20.182;2022-10-16T05:26:25;13.20;;;8.20;;
75021;SDS011;63583;49.976;20.182;2022-10-16T05:28:51;10.90;;;7.00;;
75021;SDS011;63583;49.976;20.182;2022-10-16T05:31:17;10.60;;;7.53;;
75021;SDS011;63583;49.976;20.182;2022-10-16T05:33:43;11.40;;;7.50;;
75021;SDS011;63583;49.976;20.182;2022-10-16T05:36:09;14.70;;;7.70;;
75021;SDS011;63583;49.976;20.182;2022-10-16T05:38:36;11.60;;;8.23;;
75021;SDS011;63583;49.976;20.182;2022-10-16T05:41:02;14.05;;;8.75;;
75021;SDS011;63583;49.976;20.182;2022-10-16T05:43:29;12.38;;;7.95;;
75021;SDS011;63583;49.976;20.182;2022-10-16T05:45:56;13.57;;;8.25;;
75021;SDS011;63583;49.976;20.182;2022-10-16T05:48:24;12.95;;;8.68;;
75021;SDS011;63583;49.976;20.182;2022-10-16T05:51:01;21.15;;;8.98;;
75021;SDS011;63583;49.976;20.182;2022-10-16T05:53:33;12.55;;;7.70;;
75021;SDS011;63583;49.976;20.182;2022-10-16T05:56:13;10.82;;;7.53;;
75021;SDS011;63583;49.976;20.182;2022-10-16T05:59:29;13.38;;;8.07;;
75021;SDS011;63583;49.976;20.182;2022-10-16T06:02:41;12.43;;;8.70;;
75021;SDS011;63583;49.976;20.182;2022-10-16T06:05:31;11.85;;;7.68;;
75021;SDS011;63583;49.976;20.182;2022-10-16T06:08:53;13.88;;;7.88;;
75021;SDS011;63583;49.976;20.182;2022-10-16T06:11:26;12.82;;;8.23;;
75021;SDS011;63583;49.976;20.182;2022-10-16T06:14:07;15.65;;;8.48;;
75021;SDS011;63583;49.976;20.182;2022-10-16T06:16:40;13.02;;;7.75;;
75021;SDS011;63583;49.976;20.182;2022-10-16T06:21:52;13.60;;;8.15;;
75021;SDS011;63583;49.976;20.182;2022-10-16T06:24:18;12.73;;;8.40;;
75021;SDS011;63583;49.976;20.182;2022-10-16T06:26:44;11.95;;;8.27;;
75021;SDS011;63583;49.976;20.182;2022-10-16T06:29:09;12.43;;;8.02;;
75021;SDS011;63583;49.976;20.182;2022-10-16T06:31:35;11.57;;;7.57;;
75021;SDS011;63583;49.976;20.182;2022-10-16T06:34:01;13.25;;;7.78;;
75021;SDS011;63583;49.976;20.182;2022-10-16T06:36:27;14.73;;;8.73;;
75021;SDS011;63583;49.976;20.182;2022-10-16T06:38:53;14.68;;;9.30;;
75021;SDS011;63583;49.976;20.182;2022-10-16T06:41:20;12.02;;;7.93;;
75021;SDS011;63583;49.976;20.182;2022-10-16T06:43:47;13.20;;;8.05;;
75021;SDS011;63583;49.976;20.182;2022-10-16T06:46:14;13.55;;;8.02;;
75021;SDS011;63583;49.976;20.182;2022-10-16T06:48:42;12.80;;;8.73;;
75021;SDS011;63583;49.976;20.182;2022-10-16T06:51:09;14.18;;;8.85;;
75021;SDS011;63583;49.976;20.182;2022-10-16T06:58:56;12.38;;;7.85;;
75021;SDS011;63583;49.976;20.182;2022-10-16T07:01:22;12.07;;;7.50;;
75021;SDS011;63583;49.976;20.182;2022-10-16T07:03:49;12.30;;;6.80;;
75021;SDS011;63583;49.976;20.182;2022-10-16T07:06:17;10.80;;;7.30;;
75021;SDS011;63583;49.976;20.182;2022-10-16T07:08:44;9.65;;;7.20;;
75021;SDS011;63583;49.976;20.182;2022-10-16T07:11:15;10.40;;;7.25;;
75021;SDS011;63583;49.976;20.182;2022-10-16T07:13:43;12.52;;;7.80;;
75021;SDS011;63583;49.976;20.182;2022-10-16T07:18:44;11.32;;;7.57;;
75021;SDS011;63583;49.976;20.182;2022-10-16T07:21:12;12.90;;;7.32;;
75021;SDS011;63583;49.976;20.182;2022-10-16T07:23:40;11.65;;;7.97;;
75021;SDS011;63583;49.976;20.182;2022-10-16T07:26:06;11.45;;;7.93;;
75021;SDS011;63583;49.976;20.182;2022-10-16T07:31:04;12.52;;;7.38;;
75021;SDS011;63583;49.976;20.182;2022-10-16T07:33:46;11.73;;;7.13;;
75021;SDS011;63583;49.976;20.182;2022-10-16T07:36:13;11.00;;;6.97;;
75021;SDS011;63583;49.976;20.182;2022-10-16T07:38:41;9.88;;;7.13;;
75021;SDS011;63583;49.976;20.182;2022-10-16T07:41:08;10.40;;;6.55;;
75021;SDS011;63583;49.976;20.182;2022-10-16T07:43:36;9.88;;;6.80;;
75021;SDS011;63583;49.976;20.182;2022-10-16T07:46:02;16.52;;;7.40;;
75021;SDS011;63583;49.976;20.182;2022-10-16T07:48:29;11.32;;;6.95;;
75021;SDS011;63583;49.976;20.182;2022-10-16T07:50:57;13.52;;;7.35;;
75021;SDS011;63583;49.976;20.182;2022-10-16T07:53:32;11.25;;;6.57;;
75021;SDS011;63583;49.976;20.182;2022-10-16T07:56:02;10.27;;;7.28;;
75021;SDS011;63583;49.976;20.182;2022-10-16T07:58:31;10.50;;;7.00;;
75021;SDS011;63583;49.976;20.182;2022-10-16T08:00:57;11.13;;;6.47;;
75021;SDS011;63583;49.976;20.182;2022-10-16T08:03:24;10.95;;;6.95;;
75021;SDS011;63583;49.976;20.182;2022-10-16T08:05:50;9.35;;;6.50;;
75021;SDS011;63583;49.976;20.182;2022-10-16T08:08:17;14.88;;;7.53;;
75021;SDS011;63583;49.976;20.182;2022-10-16T08:10:43;10.20;;;6.68;;
75021;SDS011;63583;49.976;20.182;2022-10-16T08:13:10;11.68;;;6.60;;
75021;SDS011;63583;49.976;20.182;2022-10-16T08:15:36;9.85;;;6.32;;
75021;SDS011;63583;49.976;20.182;2022-10-16T08:18:03;10.00;;;7.40;;
75021;SDS011;63583;49.976;20.182;2022-10-16T08:20:30;10.52;;;5.88;;
75021;SDS011;63583;49.976;20.182;2022-10-16T08:22:58;10.40;;;5.95;;
75021;SDS011;63583;49.976;20.182;2022-10-16T08:25:24;11.77;;;6.40;;
75021;SDS011;63583;49.976;20.182;2022-10-16T08:27:51;9.23;;;6.22;;
75021;SDS011;63583;49.976;20.182;2022-10-16T08:30:17;9.40;;;6.35;;
75021;SDS011;63583;49.976;20.182;2022-10-16T08:32:45;8.07;;;5.57;;
75021;SDS011;63583;49.976;20.182;2022-10-16T08:35:11;7.90;;;5.60;;
75021;SDS011;63583;49.976;20.182;2022-10-16T08:37:37;9.18;;;6.35;;
75021;SDS011;63583;49.976;20.182;2022-10-16T08:40:04;9.18;;;5.90;;
75021;SDS011;63583;49.976;20.182;2022-10-16T08:48:18;9.65;;;6.25;;
75021;SDS011;63583;49.976;20.182;2022-10-16T08:50:51;8.90;;;6.07;;
75021;SDS011;63583;49.976;20.182;2022-10-16T08:53:20;9.10;;;5.90;;
75021;SDS011;63583;49.976;20.182;2022-10-16T08:55:51;10.55;;;6.05;;
75021;SDS011;63583;49.976;20.182;2022-10-16T08:58:19;9.85;;;5.80;;
75021;SDS011;63583;49.976;20.182;2022-10-16T09:00:47;9.63;;;6.50;;
75021;SDS011;63583;49.976;20.182;2022-10-16T09:14:04;6.78;;;5.35;;
75021;SDS011;63583;49.976;20.182;2022-10-16T09:16:43;9.30;;;5.28;;
75021;SDS011;63583;49.976;20.182;2022-10-16T09:21:59;10.70;;;5.80;;
75021;SDS011;63583;49.976;20.182;2022-10-16T09:24:34;7.75;;;5.13;;
75021;SDS011;63583;49.976;20.182;2022-10-16T09:27:00;7.75;;;5.88;;
75021;SDS011;63583;49.976;20.182;2022-10-16T09:29:26;7.95;;;4.90;;
75021;SDS011;63583;49.976;20.182;2022-10-16T09:31:52;9.80;;;5.15;;
75021;SDS011;63583;49.976;20.182;2022-10-16T09:34:33;9.30;;;5.47;;
75021;SDS011;63583;49.976;20.182;2022-10-16T09:37:03;7.25;;;5.35;;
75021;SDS011;63583;49.976;20.182;2022-10-16T09:39:41;7.63;;;4.88;;
75021;SDS011;63583;49.976;20.182;2022-10-16T09:42:11;8.10;;;5.47;;
75021;SDS011;63583;49.976;20.182;2022-10-16T09:45:05;12.95;;;5.70;;
75021;SDS011;63583;49.976;20.182;2022-10-16T09:47:45;8.48;;;5.93;;
75021;SDS011;63583;49.976;20.182;2022-10-16T09:50:24;8.43;;;5.47;;
75021;SDS011;63583;49.976;20.182;2022-10-16T09:53:02;9.07;;;6.50;;
75021;SDS011;63583;49.976;20.182;2022-10-16T09:55:30;8.73;;;6.03;;
75021;SDS011;63583;49.976;20.182;2022-10-16T09:57:55;8.18;;;5.90;;
75021;SDS011;63583;49.976;20.182;2022-10-16T10:00:22;9.48;;;5.53;;
75021;SDS011;63583;49.976;20.182;2022-10-16T10:02:49;8.65;;;5.97;;
75021;SDS011;63583;49.976;20.182;2022-10-16T10:05:26;9.63;;;6.45;;
75021;SDS011;63583;49.976;20.182;2022-10-16T10:08:00;10.13;;;5.80;;
75021;SDS011;63583;49.976;20.182;2022-10-16T10:10:37;10.25;;;5.93;;
75021;SDS011;63583;49.976;20.182;2022-10-16T10:13:20;9.65;;;5.72;;
75021;SDS011;63583;49.976;20.182;2022-10-16T10:15:48;8.18;;;5.35;;
75021;SDS011;63583;49.976;20.182;2022-10-16T10:18:21;9.90;;;6.07;;
75021;SDS011;63583;49.976;20.182;2022-10-16T10:20:59;11.50;;;6.82;;
75021;SDS011;63583;49.976;20.182;2022-10-16T10:23:26;8.38;;;5.53;;
75021;SDS011;63583;49.976;20.182;2022-10-16T10:26:06;9.85;;;6.25;;
75021;SDS011;63583;49.976;20.182;2022-10-16T10:28:44;8.10;;;6.05;;
75021;SDS011;63583;49.976;20.182;2022-10-16T10:33:53;8.45;;;6.03;;
75021;SDS011;63583;49.976;20.182;2022-10-16T10:47:47;10.05;;;6.30;;
75021;SDS011;63583;49.976;20.182;2022-10-16T10:55:38;9.55;;;6.15;;
75021;SDS011;63583;49.976;20.182;2022-10-16T11:06:23;10.52;;;5.60;;
75021;SDS011;63583;49.976;20.182;2022-10-16T11:14:22;8.23;;;5.43;;
75021;SDS011;63583;49.976;20.182;2022-10-16T11:22:12;9.18;;;6.63;;
75021;SDS011;63583;49.976;20.182;2022-10-16T11:24:45;10.07;;;6.32;;
75021;SDS011;63583;49.976;20.182;2022-10-16T11:27:41;8.50;;;5.75;;
75021;SDS011;63583;49.976;20.182;2022-10-16T11:30:30;7.60;;;5.55;;
75021;SDS011;63583;49.976;20.182;2022-10-16T11:35:57;9.00;;;5.25;;
75021;SDS011;63583;49.976;20.182;2022-10-16T11:38:46;7.28;;;5.32;;
75021;SDS011;63583;49.976;20.182;2022-10-16T11:49:53;7.35;;;5.70;;
75021;SDS011;63583;49.976;20.182;2022-10-16T11:52:25;8.30;;;5.90;;
75021;SDS011;63583;49.976;20.182;2022-10-16T11:55:00;8.50;;;5.10;;
75021;SDS011;63583;49.976;20.182;2022-10-16T11:57:32;9.95;;;5.60;;
75021;SDS011;63583;49.976;20.182;2022-10-16T12:00:19;8.55;;;5.18;;
75021;SDS011;63583;49.976;20.182;2022-10-16T12:08:14;9.32;;;5.63;;
75021;SDS011;63583;49.976;20.182;2022-10-16T12:10:43;8.30;;;5.15;;
75021;SDS011;63583;49.976;20.182;2022-10-16T12:18:40;8.52;;;5.05;;
75021;SDS011;63583;49.976;20.182;2022-10-16T12:21:07;9.57;;;5.55;;
75021;SDS011;63583;49.976;20.182;2022-10-16T12:23:36;8.23;;;5.05;;
75021;SDS011;63583;49.976;20.182;2022-10-16T12:26:03;7.53;;;5.18;;
75021;SDS011;63583;49.976;20.182;2022-10-16T12:28:31;7.22;;;5.22;;
75021;SDS011;63583;49.976;20.182;2022-10-16T12:30:59;8.05;;;5.35;;
75021;SDS011;63583;49.976;20.182;2022-10-16T12:33:27;8.48;;;5.88;;
75021;SDS011;63583;49.976;20.182;2022-10-16T12:35:55;7.25;;;5.85;;
75021;SDS011;63583;49.976;20.182;2022-10-16T12:41:03;8.35;;;5.43;;
75021;SDS011;63583;49.976;20.182;2022-10-16T12:43:41;7.35;;;5.38;;
75021;SDS011;63583;49.976;20.182;2022-10-16T12:48:37;8.85;;;5.88;;
75021;SDS011;63583;49.976;20.182;2022-10-16T12:51:37;7.88;;;5.60;;
75021;SDS011;63583;49.976;20.182;2022-10-16T12:54:00;10.48;;;6.00;;
75021;SDS011;63583;49.976;20.182;2022-10-16T12:57:01;6.90;;;5.20;;
75021;SDS011;63583;49.976;20.182;2022-10-16T12:59:47;8.75;;;5.50;;
75021;SDS011;63583;49.976;20.182;2022-10-16T13:05:24;6.85;;;4.75;;
75021;SDS011;63583;49.976;20.182;2022-10-16T13:08:01;8.55;;;5.53;;
75021;SDS011;63583;49.976;20.182;2022-10-16T13:13:24;7.45;;;5.45;;
75021;SDS011;63583;49.976;20.182;2022-10-16T13:29:31;8.13;;;4.85;;
75021;SDS011;63583;49.976;20.182;2022-10-16T13:31:58;9.68;;;5.43;;
75021;SDS011;63583;49.976;20.182;2022-10-16T13:34:32;8.30;;;4.75;;
75021;SDS011;63583;49.976;20.182;2022-10-16T13:36:58;8.15;;;4.70;;
75021;SDS011;63583;49.976;20.182;2022-10-16T13:39:27;9.02;;;5.15;;
75021;SDS011;63583;49.976;20.182;2022-10-16T13:42:22;7.72;;;4.60;;
75021;SDS011;63583;49.976;20.182;2022-10-16T13:44:51;9.10;;;5.20;;
75021;SDS011;63583;49.976;20.182;2022-10-16T13:49:45;6.78;;;4.93;;
75021;SDS011;63583;49.976;20.182;2022-10-16T13:52:17;8.45;;;5.78;;
75021;SDS011;63583;49.976;20.182;2022-10-16T13:54:45;7.35;;;5.97;;
75021;SDS011;63583;49.976;20.182;2022-10-16T13:57:14;7.05;;;6.05;;
75021;SDS011;63583;49.976;20.182;2022-10-16T13:59:41;7.43;;;5.53;;
75021;SDS011;63583;49.976;20.182;2022-10-16T14:02:19;8.50;;;6.18;;
75021;SDS011;63583;49.976;20.182;2022-10-16T14:04:47;10.77;;;5.70;;
75021;SDS011;63583;49.976;20.182;2022-10-16T14:07:15;9.27;;;6.43;;
75021;SDS011;63583;49.976;20.182;2022-10-16T14:09:48;8.32;;;5.88;;
75021;SDS011;63583;49.976;20.182;2022-10-16T14:12:17;8.65;;;5.50;;
75021;SDS011;63583;49.976;20.182;2022-10-16T14:14:44;7.43;;;5.38;;
75021;SDS011;63583;49.976;20.182;2022-10-16T14:17:13;8.63;;;5.47;;
75021;SDS011;63583;49.976;20.182;2022-10-16T14:19:48;9.50;;;5.35;;
75021;SDS011;63583;49.976;20.182;2022-10-16T14:22:37;8.57;;;5.53;;
75021;SDS011;63583;49.976;20.182;2022-10-16T14:30:50;10.43;;;5.32;;
75021;SDS011;63583;49.976;20.182;2022-10-16T14:33:25;9.82;;;5.53;;
75021;SDS011;63583;49.976;20.182;2022-10-16T14:36:00;9.38;;;5.40;;
75021;SDS011;63583;49.976;20.182;2022-10-16T14:38:58;8.65;;;5.47;;
75021;SDS011;63583;49.976;20.182;2022-10-16T14:41:43;8.52;;;5.65;;
75021;SDS011;63583;49.976;20.182;2022-10-16T14:44:11;8.02;;;5.65;;
75021;SDS011;63583;49.976;20.182;2022-10-16T14:46:38;8.85;;;5.57;;
75021;SDS011;63583;49.976;20.182;2022-10-16T14:51:36;8.13;;;5.78;;
75021;SDS011;63583;49.976;20.182;2022-10-16T14:54:03;9.60;;;5.68;;
75021;SDS011;63583;49.976;20.182;2022-10-16T14:57:15;10.82;;;6.25;;
75021;SDS011;63583;49.976;20.182;2022-10-16T14:59:28;8.57;;;5.53;;
75021;SDS011;63583;49.976;20.182;2022-10-16T15:01:59;7.50;;;5.25;;
75021;SDS011;63583;49.976;20.182;2022-10-16T15:04:26;9.23;;;6.10;;
75021;SDS011;63583;49.976;20.182;2022-10-16T15:06:51;12.70;;;6.60;;
75021;SDS011;63583;49.976;20.182;2022-10-16T15:09:17;10.77;;;5.97;;
75021;SDS011;63583;49.976;20.182;2022-10-16T15:11:43;8.35;;;5.70;;
75021;SDS011;63583;49.976;20.182;2022-10-16T15:14:12;9.70;;;6.38;;
75021;SDS011;63583;49.976;20.182;2022-10-16T15:16:40;9.57;;;5.90;;
75021;SDS011;63583;49.976;20.182;2022-10-16T15:19:06;13.15;;;7.57;;
75021;SDS011;63583;49.976;20.182;2022-10-16T15:21:32;14.10;;;8.88;;
75021;SDS011;63583;49.976;20.182;2022-10-16T15:23:59;32.92;;;19.52;;
75021;SDS011;63583;49.976;20.182;2022-10-16T15:26:26;15.43;;;8.68;;
75021;SDS011;63583;49.976;20.182;2022-10-16T15:28:53;12.55;;;8.98;;
75021;SDS011;63583;49.976;20.182;2022-10-16T15:31:20;10.45;;;7.55;;
75021;SDS011;63583;49.976;20.182;2022-10-16T15:33:51;10.98;;;6.47;;
75021;SDS011;63583;49.976;20.182;2022-10-16T15:36:28;8.32;;;6.28;;
75021;SDS011;63583;49.976;20.182;2022-10-16T15:38:55;9.00;;;6.35;;
75021;SDS011;63583;49.976;20.182;2022-10-16T15:41:22;9.80;;;6.95;;
75021;SDS011;63583;49.976;20.182;2022-10-16T15:43:49;10.98;;;7.80;;
75021;SDS011;63583;49.976;20.182;2022-10-16T15:46:17;12.48;;;7.22;;
75021;SDS011;63583;49.976;20.182;2022-10-16T15:48:44;20.05;;;12.32;;
75021;SDS011;63583;49.976;20.182;2022-10-16T15:51:10;30.15;;;22.35;;
75021;SDS011;63583;49.976;20.182;2022-10-16T15:53:36;51.97;;;35.53;;
75021;SDS011;63583;49.976;20.182;2022-10-16T15:56:03;43.17;;;27.10;;
75021;SDS011;63583;49.976;20.182;2022-10-16T15:58:30;19.55;;;13.85;;
75021;SDS011;63583;49.976;20.182;2022-10-16T16:00:56;27.85;;;18.42;;
75021;SDS011;63583;49.976;20.182;2022-10-16T16:03:23;23.35;;;16.67;;
75021;SDS011;63583;49.976;20.182;2022-10-16T16:05:49;19.55;;;13.13;;
75021;SDS011;63583;49.976;20.182;2022-10-16T16:08:15;20.05;;;11.80;;
75021;SDS011;63583;49.976;20.182;2022-10-16T16:10:41;16.95;;;11.07;;
75021;SDS011;63583;49.976;20.182;2022-10-16T16:13:07;11.95;;;8.25;;
75021;SDS011;63583;49.976;20.182;2022-10-16T16:15:33;14.95;;;9.65;;
75021;SDS011;63583;49.976;20.182;2022-10-16T16:17:59;14.82;;;8.93;;
75021;SDS011;63583;49.976;20.182;2022-10-16T16:20:27;11.75;;;8.40;;
75021;SDS011;63583;49.976;20.182;2022-10-16T16:22:53;12.85;;;9.75;;
75021;SDS011;63583;49.976;20.182;2022-10-16T16:25:18;13.60;;;9.82;;
75021;SDS011;63583;49.976;20.182;2022-10-16T16:27:45;16.38;;;10.57;;
75021;SDS011;63583;49.976;20.182;2022-10-16T16:30:11;20.58;;;13.98;;
75021;SDS011;63583;49.976;20.182;2022-10-16T16:32:37;20.15;;;13.07;;
75021;SDS011;63583;49.976;20.182;2022-10-16T16:35:03;21.80;;;11.98;;
75021;SDS011;63583;49.976;20.182;2022-10-16T16:37:30;14.45;;;10.23;;
75021;SDS011;63583;49.976;20.182;2022-10-16T16:39:56;16.92;;;12.55;;
75021;SDS011;63583;49.976;20.182;2022-10-16T16:42:24;17.15;;;11.32;;
75021;SDS011;63583;49.976;20.182;2022-10-16T16:44:51;15.55;;;10.52;;
75021;SDS011;63583;49.976;20.182;2022-10-16T16:47:16;20.15;;;13.27;;
75021;SDS011;63583;49.976;20.182;2022-10-16T16:49:42;16.88;;;11.50;;
75021;SDS011;63583;49.976;20.182;2022-10-16T16:52:08;23.13;;;14.68;;
75021;SDS011;63583;49.976;20.182;2022-10-16T16:54:34;23.48;;;13.63;;
75021;SDS011;63583;49.976;20.182;2022-10-16T16:57:00;25.23;;;15.82;;
75021;SDS011;63583;49.976;20.182;2022-10-16T16:59:25;30.48;;;16.67;;
75021;SDS011;63583;49.976;20.182;2022-10-16T17:01:51;23.02;;;13.98;;
75021;SDS011;63583;49.976;20.182;2022-10-16T17:04:17;21.73;;;15.00;;